sensor_id;sensor_type;location;lat;lon;timestamp;pressure;altitude;pressure_sealevel;temperature;humidity
10310;BME280;5200;43.236;27.986;2023-03-22T00:01:16;99906.00;;;6.47;100.00
10310;BME280;5200;43.236;27.986;2023-03-22T00:03:46;99891.38;;;6.45;100.00
10310;BME280;5200;43.236;27.986;2023-03-22T00:06:15;99873.41;;;6.40;100.00
10310;BME280;5200;43.236;27.986;2023-03-22T00:08:42;99901.00;;;6.55;100.00
10310;BME280;5200;43.236;27.986;2023-03-22T00:11:10;99902.56;;;6.58;100.00
10310;BME280;5200;43.236;27.986;2023-03-22T00:13:38;99873.81;;;6.47;100.00
10310;BME280;5200;43.236;27.986;2023-03-22T00:16:07;99889.28;;;6.61;100.00
10310;BME280;5200;43.236;27.986;2023-03-22T00:18:35;99868.78;;;6.44;100.00
10310;BME280;5200;43.236;27.986;2023-03-22T00:21:02;99902.13;;;6.64;100.00
10310;BME280;5200;43.236;27.986;2023-03-22T00:23:30;99855.97;;;6.41;100.00
10310;BME280;5200;43.236;27.986;2023-03-22T00:25:57;99869.53;;;6.57;100.00
10310;BME280;5200;43.236;27.986;2023-03-22T00:28:24;99897.47;;;6.68;100.00
10310;BME280;5200;43.236;27.986;2023-03-22T00:30:52;99880.00;;;6.57;100.00
10310;BME280;5200;43.236;27.986;2023-03-22T00:33:20;99890.84;;;6.64;100.00
10310;BME280;5200;43.236;27.986;2023-03-22T00:35:49;99865.72;;;6.50;100.00
10310;BME280;5200;43.236;27.986;2023-03-22T00:38:15;99889.78;;;6.66;100.00
10310;BME280;5200;43.236;27.986;2023-03-22T00:40:44;99846.91;;;6.33;100.00
10310;BME280;5200;43.236;27.986;2023-03-22T00:43:19;99874.78;;;6.57;100.00
10310;BME280;5200;43.236;27.986;2023-03-22T00:45:46;99877.19;;;6.71;100.00
10310;BME280;5200;43.236;27.986;2023-03-22T00:48:13;99868.59;;;6.69;100.00
10310;BME280;5200;43.236;27.986;2023-03-22T00:51:00;99868.38;;;6.72;100.00
10310;BME280;5200;43.236;27.986;2023-03-22T00:53:27;99871.22;;;6.69;100.00
10310;BME280;5200;43.236;27.986;2023-03-22T00:55:56;99873.47;;;6.63;100.00
10310;BME280;5200;43.236;27.986;2023-03-22T00:58:23;99869.78;;;6.65;100.00
10310;BME280;5200;43.236;27.986;2023-03-22T01:00:50;99859.56;;;6.62;100.00
10310;BME280;5200;43.236;27.986;2023-03-22T01:03:17;99865.50;;;6.64;100.00
10310;BME280;5200;43.236;27.986;2023-03-22T01:05:46;99847.56;;;6.60;100.00
10310;BME280;5200;43.236;27.986;2023-03-22T01:08:14;99835.53;;;6.46;100.00
10310;BME280;5200;43.236;27.986;2023-03-22T01:10:42;99854.78;;;6.56;100.00
10310;BME280;5200;43.236;27.986;2023-03-22T01:13:11;99823.88;;;6.39;100.00
10310;BME280;5200;43.236;27.986;2023-03-22T01:15:38;99826.97;;;6.44;100.00
10310;BME280;5200;43.236;27.986;2023-03-22T01:18:06;99806.88;;;6.33;100.00
10310;BME280;5200;43.236;27.986;2023-03-22T01:20:33;99811.38;;;6.31;100.00
10310;BME280;5200;43.236;27.986;2023-03-22T01:23:00;99839.09;;;6.45;100.00
10310;BME280;5200;43.236;27.986;2023-03-22T01:25:27;99838.50;;;6.41;100.00
10310;BME280;5200;43.236;27.986;2023-03-22T01:27:53;99843.22;;;6.36;100.00
10310;BME280;5200;43.236;27.986;2023-03-22T01:30:21;99821.47;;;6.24;100.00
10310;BME280;5200;43.236;27.986;2023-03-22T01:32:48;99828.81;;;6.19;100.00
10310;BME280;5200;43.236;27.986;2023-03-22T01:35:15;99841.19;;;6.28;100.00
10310;BME280;5200;43.236;27.986;2023-03-22T01:37:42;99830.47;;;6.20;100.00
10310;BME280;5200;43.236;27.986;2023-03-22T01:40:11;99865.44;;;6.30;100.00
10310;BME280;5200;43.236;27.986;2023-03-22T01:42:38;99845.94;;;6.23;100.00
10310;BME280;5200;43.236;27.986;2023-03-22T01:45:35;99864.97;;;6.37;100.00
10310;BME280;5200;43.236;27.986;2023-03-22T01:48:20;99849.03;;;6.28;100.00
10310;BME280;5200;43.236;27.986;2023-03-22T01:50:59;99830.38;;;6.22;100.00
10310;BME280;5200;43.236;27.986;2023-03-22T01:53:29;99850.25;;;6.35;100.00
10310;BME280;5200;43.236;27.986;2023-03-22T01:55:58;99846.91;;;6.33;100.00
10310;BME280;5200;43.236;27.986;2023-03-22T01:58:26;99828.00;;;6.19;100.00
10310;BME280;5200;43.236;27.986;2023-03-22T02:00:54;99854.78;;;6.45;100.00
10310;BME280;5200;43.236;27.986;2023-03-22T02:03:26;99836.69;;;6.30;100.00
10310;BME280;5200;43.236;27.986;2023-03-22T02:05:56;99845.94;;;6.34;100.00
10310;BME280;5200;43.236;27.986;2023-03-22T02:08:23;99866.44;;;6.52;100.00
10310;BME280;5200;43.236;27.986;2023-03-22T02:10:50;99852.50;;;6.40;100.00
10310;BME280;5200;43.236;27.986;2023-03-22T02:13:25;99845.34;;;6.31;100.00
10310;BME280;5200;43.236;27.986;2023-03-22T02:16:06;99874.25;;;6.41;100.00
10310;BME280;5200;43.236;27.986;2023-03-22T02:18:49;99873.53;;;6.39;100.00
10310;BME280;5200;43.236;27.986;2023-03-22T02:21:36;99845.06;;;6.23;100.00
10310;BME280;5200;43.236;27.986;2023-03-22T02:27:38;99880.25;;;6.30;100.00
10310;BME280;5200;43.236;27.986;2023-03-22T02:30:24;99876.38;;;6.35;100.00
10310;BME280;5200;43.236;27.986;2023-03-22T02:35:56;99889.50;;;6.47;100.00
10310;BME280;5200;43.236;27.986;2023-03-22T02:39:00;99890.91;;;6.51;100.00
10310;BME280;5200;43.236;27.986;2023-03-22T02:41:39;99869.03;;;6.41;100.00
10310;BME280;5200;43.236;27.986;2023-03-22T02:44:16;99873.31;;;6.53;100.00
10310;BME280;5200;43.236;27.986;2023-03-22T02:46:52;99880.81;;;6.57;100.00
10310;BME280;5200;43.236;27.986;2023-03-22T02:49:27;99834.56;;;6.35;100.00
10310;BME280;5200;43.236;27.986;2023-03-22T02:52:00;99878.56;;;6.53;100.00
10310;BME280;5200;43.236;27.986;2023-03-22T02:54:34;99871.06;;;6.48;100.00
10310;BME280;5200;43.236;27.986;2023-03-22T02:57:09;99886.75;;;6.48;100.00
10310;BME280;5200;43.236;27.986;2023-03-22T02:59:40;99861.88;;;6.31;100.00
10310;BME280;5200;43.236;27.986;2023-03-22T03:02:10;99857.94;;;6.26;100.00
10310;BME280;5200;43.236;27.986;2023-03-22T03:04:41;99859.94;;;6.22;100.00
10310;BME280;5200;43.236;27.986;2023-03-22T03:07:11;99899.09;;;6.46;100.00
10310;BME280;5200;43.236;27.986;2023-03-22T03:09:41;99888.16;;;6.41;100.00
10310;BME280;5200;43.236;27.986;2023-03-22T03:12:13;99868.63;;;6.34;100.00
10310;BME280;5200;43.236;27.986;2023-03-22T03:14:40;99869.84;;;6.41;100.00
10310;BME280;5200;43.236;27.986;2023-03-22T03:17:17;99873.81;;;6.47;100.00
10310;BME280;5200;43.236;27.986;2023-03-22T03:19:56;99871.97;;;6.36;100.00
10310;BME280;5200;43.236;27.986;2023-03-22T03:22:35;99889.69;;;6.44;100.00
10310;BME280;5200;43.236;27.986;2023-03-22T03:25:10;99894.91;;;6.44;100.00
10310;BME280;5200;43.236;27.986;2023-03-22T03:27:46;99901.09;;;6.43;100.00
10310;BME280;5200;43.236;27.986;2023-03-22T03:30:19;99897.03;;;6.39;100.00
10310;BME280;5200;43.236;27.986;2023-03-22T03:32:52;99871.22;;;6.23;100.00
10310;BME280;5200;43.236;27.986;2023-03-22T03:35:22;99885.38;;;6.31;100.00
10310;BME280;5200;43.236;27.986;2023-03-22T03:37:53;99900.97;;;6.33;100.00
10310;BME280;5200;43.236;27.986;2023-03-22T03:40:27;99898.06;;;6.25;100.00
10310;BME280;5200;43.236;27.986;2023-03-22T03:42:58;99876.50;;;6.10;100.00
10310;BME280;5200;43.236;27.986;2023-03-22T03:45:28;99881.50;;;6.13;100.00
10310;BME280;5200;43.236;27.986;2023-03-22T03:47:57;99895.09;;;6.29;100.00
10310;BME280;5200;43.236;27.986;2023-03-22T03:50:26;99875.44;;;6.12;100.00
10310;BME280;5200;43.236;27.986;2023-03-22T03:52:53;99867.31;;;6.04;100.00
10310;BME280;5200;43.236;27.986;2023-03-22T03:55:21;99864.19;;;6.12;100.00
10310;BME280;5200;43.236;27.986;2023-03-22T03:57:50;99902.34;;;6.26;100.00
10310;BME280;5200;43.236;27.986;2023-03-22T04:00:17;99898.53;;;6.19;100.00
10310;BME280;5200;43.236;27.986;2023-03-22T04:02:44;99913.16;;;6.32;100.00
10310;BME280;5200;43.236;27.986;2023-03-22T04:05:12;99909.84;;;6.30;100.00
10310;BME280;5200;43.236;27.986;2023-03-22T04:07:38;99916.50;;;6.34;100.00
10310;BME280;5200;43.236;27.986;2023-03-22T04:10:07;99897.19;;;6.13;100.00
10310;BME280;5200;43.236;27.986;2023-03-22T04:12:33;99891.03;;;6.14;100.00
10310;BME280;5200;43.236;27.986;2023-03-22T04:15:02;99894.94;;;6.20;100.00
10310;BME280;5200;43.236;27.986;2023-03-22T04:17:29;99895.91;;;6.19;100.00
10310;BME280;5200;43.236;27.986;2023-03-22T04:19:56;99911.59;;;6.19;100.00
10310;BME280;5200;43.236;27.986;2023-03-22T04:22:24;99901.72;;;6.22;100.00
10310;BME280;5200;43.236;27.986;2023-03-22T04:24:51;99932.41;;;6.31;100.00
10310;BME280;5200;43.236;27.986;2023-03-22T04:27:19;99930.88;;;6.29;100.00
10310;BME280;5200;43.236;27.986;2023-03-22T04:29:46;99906.78;;;6.12;100.00
10310;BME280;5200;43.236;27.986;2023-03-22T04:32:17;99917.63;;;6.19;100.00
10310;BME280;5200;43.236;27.986;2023-03-22T04:34:47;99926.94;;;6.23;100.00
10310;BME280;5200;43.236;27.986;2023-03-22T04:37:14;99916.84;;;6.06;100.00
10310;BME280;5200;43.236;27.986;2023-03-22T04:39:41;99913.75;;;6.01;100.00
10310;BME280;5200;43.236;27.986;2023-03-22T04:42:08;99905.81;;;6.02;100.00
10310;BME280;5200;43.236;27.986;2023-03-22T04:44:35;99914.72;;;6.11;100.00
10310;BME280;5200;43.236;27.986;2023-03-22T04:47:01;99937.00;;;6.28;100.00
10310;BME280;5200;43.236;27.986;2023-03-22T04:49:30;99911.84;;;6.03;100.00
10310;BME280;5200;43.236;27.986;2023-03-22T04:51:57;99924.91;;;6.03;100.00
10310;BME280;5200;43.236;27.986;2023-03-22T04:54:24;99938.75;;;6.16;100.00
10310;BME280;5200;43.236;27.986;2023-03-22T04:56:51;99947.09;;;6.21;100.00
10310;BME280;5200;43.236;27.986;2023-03-22T04:59:18;99943.75;;;6.19;100.00
10310;BME280;5200;43.236;27.986;2023-03-22T05:01:45;99922.53;;;6.00;100.00
10310;BME280;5200;43.236;27.986;2023-03-22T05:04:12;99941.88;;;6.21;100.00
10310;BME280;5200;43.236;27.986;2023-03-22T05:06:40;99919.47;;;6.06;100.00
10310;BME280;5200;43.236;27.986;2023-03-22T05:09:07;99918.88;;;6.02;100.00
10310;BME280;5200;43.236;27.986;2023-03-22T05:11:34;99919.94;;;6.00;100.00
10310;BME280;5200;43.236;27.986;2023-03-22T05:14:02;99924.41;;;5.98;100.00
10310;BME280;5200;43.236;27.986;2023-03-22T05:16:29;99950.38;;;6.12;100.00
10310;BME280;5200;43.236;27.986;2023-03-22T05:18:56;99901.66;;;5.87;100.00
10310;BME280;5200;43.236;27.986;2023-03-22T05:21:24;99949.19;;;6.16;100.00
10310;BME280;5200;43.236;27.986;2023-03-22T05:23:54;99924.63;;;5.95;100.00
10310;BME280;5200;43.236;27.986;2023-03-22T05:26:22;99932.97;;;6.00;100.00
10310;BME280;5200;43.236;27.986;2023-03-22T05:28:51;99959.53;;;6.18;100.00
10310;BME280;5200;43.236;27.986;2023-03-22T05:31:18;99955.69;;;6.10;100.00
10310;BME280;5200;43.236;27.986;2023-03-22T05:33:46;99958.00;;;6.15;100.00
10310;BME280;5200;43.236;27.986;2023-03-22T05:36:15;99939.84;;;6.01;100.00
10310;BME280;5200;43.236;27.986;2023-03-22T05:38:42;99949.25;;;6.03;100.00
10310;BME280;5200;43.236;27.986;2023-03-22T05:41:12;99971.78;;;6.17;100.00
10310;BME280;5200;43.236;27.986;2023-03-22T05:43:39;99945.31;;;5.98;100.00
10310;BME280;5200;43.236;27.986;2023-03-22T05:46:07;99978.28;;;6.11;100.00
10310;BME280;5200;43.236;27.986;2023-03-22T05:48:34;99972.00;;;6.14;100.00
10310;BME280;5200;43.236;27.986;2023-03-22T05:51:01;99962.63;;;6.11;100.00
10310;BME280;5200;43.236;27.986;2023-03-22T05:53:31;99931.91;;;5.89;100.00
10310;BME280;5200;43.236;27.986;2023-03-22T05:55:58;99963.44;;;6.12;100.00
10310;BME280;5200;43.236;27.986;2023-03-22T05:58:28;99972.19;;;6.11;100.00
10310;BME280;5200;43.236;27.986;2023-03-22T06:00:55;99958.25;;;5.99;100.00
10310;BME280;5200;43.236;27.986;2023-03-22T06:03:25;99969.91;;;6.06;100.00
10310;BME280;5200;43.236;27.986;2023-03-22T06:05:52;99985.50;;;6.08;100.00
10310;BME280;5200;43.236;27.986;2023-03-22T06:08:20;99968.44;;;6.15;100.00
10310;BME280;5200;43.236;27.986;2023-03-22T06:10:48;99944.84;;;6.04;100.00
10310;BME280;5200;43.236;27.986;2023-03-22T06:13:15;99965.91;;;6.13;100.00
10310;BME280;5200;43.236;27.986;2023-03-22T06:15:44;99974.72;;;6.12;100.00
10310;BME280;5200;43.236;27.986;2023-03-22T06:18:11;99951.59;;;5.95;100.00
10310;BME280;5200;43.236;27.986;2023-03-22T06:20:38;99948.66;;;5.87;100.00
10310;BME280;5200;43.236;27.986;2023-03-22T06:23:05;99986.22;;;6.10;100.00
10310;BME280;5200;43.236;27.986;2023-03-22T06:25:32;99964.94;;;6.03;100.00
10310;BME280;5200;43.236;27.986;2023-03-22T06:27:59;99948.84;;;5.97;100.00
10310;BME280;5200;43.236;27.986;2023-03-22T06:30:26;99972.84;;;6.14;100.00
10310;BME280;5200;43.236;27.986;2023-03-22T06:32:54;99959.28;;;5.97;100.00
10310;BME280;5200;43.236;27.986;2023-03-22T06:35:25;99971.59;;;6.07;100.00
10310;BME280;5200;43.236;27.986;2023-03-22T06:37:52;99978.28;;;6.11;100.00
10310;BME280;5200;43.236;27.986;2023-03-22T06:40:18;99961.03;;;6.09;100.00
10310;BME280;5200;43.236;27.986;2023-03-22T06:42:45;99990.84;;;6.30;100.00
10310;BME280;5200;43.236;27.986;2023-03-22T06:45:12;99990.63;;;6.33;100.00
10310;BME280;5200;43.236;27.986;2023-03-22T06:47:41;99989.34;;;6.39;100.00
10310;BME280;5200;43.236;27.986;2023-03-22T06:50:10;99958.78;;;6.28;100.00
10310;BME280;5200;43.236;27.986;2023-03-22T06:52:37;99981.56;;;6.50;100.00
10310;BME280;5200;43.236;27.986;2023-03-22T06:55:04;99956.19;;;6.40;100.00
10310;BME280;5200;43.236;27.986;2023-03-22T06:57:31;100000.16;;;6.70;100.00
10310;BME280;5200;43.236;27.986;2023-03-22T06:59:58;99995.06;;;6.68;100.00
10310;BME280;5200;43.236;27.986;2023-03-22T07:02:25;99979.03;;;6.73;100.00
10310;BME280;5200;43.236;27.986;2023-03-22T07:04:52;99993.09;;;6.83;100.00
10310;BME280;5200;43.236;27.986;2023-03-22T07:07:20;99986.56;;;6.77;100.00
10310;BME280;5200;43.236;27.986;2023-03-22T07:09:47;100006.81;;;6.98;100.00
10310;BME280;5200;43.236;27.986;2023-03-22T07:12:14;100001.69;;;6.96;100.00
10310;BME280;5200;43.236;27.986;2023-03-22T07:14:41;100014.78;;;7.08;100.00
10310;BME280;5200;43.236;27.986;2023-03-22T07:17:08;100005.28;;;7.07;100.00
10310;BME280;5200;43.236;27.986;2023-03-22T07:19:36;99981.38;;;7.00;100.00
10310;BME280;5200;43.236;27.986;2023-03-22T07:22:03;100013.16;;;7.18;100.00
10310;BME280;5200;43.236;27.986;2023-03-22T07:24:32;100032.94;;;7.22;100.00
10310;BME280;5200;43.236;27.986;2023-03-22T07:26:58;100019.44;;;7.04;100.00
10310;BME280;5200;43.236;27.986;2023-03-22T07:29:25;100010.09;;;6.89;100.00
10310;BME280;5200;43.236;27.986;2023-03-22T07:31:52;100030.63;;;7.06;100.00
10310;BME280;5200;43.236;27.986;2023-03-22T07:34:19;100027.53;;;7.01;100.00
10310;BME280;5200;43.236;27.986;2023-03-22T07:36:46;100033.25;;;7.06;100.00
10310;BME280;5200;43.236;27.986;2023-03-22T07:39:13;100026.56;;;7.02;100.00
10310;BME280;5200;43.236;27.986;2023-03-22T07:41:41;99994.84;;;6.71;100.00
10310;BME280;5200;43.236;27.986;2023-03-22T07:44:08;100007.00;;;6.84;100.00
10310;BME280;5200;43.236;27.986;2023-03-22T07:46:34;100029.91;;;7.04;100.00
10310;BME280;5200;43.236;27.986;2023-03-22T07:49:01;100019.00;;;7.10;100.00
10310;BME280;5200;43.236;27.986;2023-03-22T07:51:28;99960.66;;;6.86;100.00
10310;BME280;5200;43.236;27.986;2023-03-22T07:53:55;100016.72;;;7.06;100.00
10310;BME280;5200;43.236;27.986;2023-03-22T07:56:22;100022.53;;;7.09;100.00
10310;BME280;5200;43.236;27.986;2023-03-22T07:58:50;100023.16;;;7.13;100.00
10310;BME280;5200;43.236;27.986;2023-03-22T08:01:17;100017.78;;;7.03;100.00
10310;BME280;5200;43.236;27.986;2023-03-22T08:03:44;100027.44;;;7.14;100.00
10310;BME280;5200;43.236;27.986;2023-03-22T08:06:11;100032.31;;;7.18;100.00
10310;BME280;5200;43.236;27.986;2023-03-22T08:08:37;100009.78;;;7.05;100.00
10310;BME280;5200;43.236;27.986;2023-03-22T08:11:06;100043.41;;;7.22;100.00
10310;BME280;5200;43.236;27.986;2023-03-22T08:13:33;100030.50;;;7.08;100.00
10310;BME280;5200;43.236;27.986;2023-03-22T08:16:02;100011.53;;;6.93;100.00
10310;BME280;5200;43.236;27.986;2023-03-22T08:18:28;100038.09;;;6.99;100.00
10310;BME280;5200;43.236;27.986;2023-03-22T08:20:56;100007.22;;;6.81;100.00
10310;BME280;5200;43.236;27.986;2023-03-22T08:23:24;100025.78;;;6.89;100.00
10310;BME280;5200;43.236;27.986;2023-03-22T08:25:51;100012.03;;;6.87;100.00
10310;BME280;5200;43.236;27.986;2023-03-22T08:28:18;100047.59;;;7.01;100.00
10310;BME280;5200;43.236;27.986;2023-03-22T08:30:46;100032.09;;;6.86;100.00
10310;BME280;5200;43.236;27.986;2023-03-22T08:33:15;100021.88;;;6.83;100.00
10310;BME280;5200;43.236;27.986;2023-03-22T08:35:42;100044.16;;;7.00;100.00
10310;BME280;5200;43.236;27.986;2023-03-22T08:38:10;100049.28;;;7.02;100.00
10310;BME280;5200;43.236;27.986;2023-03-22T08:40:37;100053.69;;;7.12;100.00
10310;BME280;5200;43.236;27.986;2023-03-22T08:43:04;100056.59;;;7.20;100.00
10310;BME280;5200;43.236;27.986;2023-03-22T08:45:31;100067.75;;;7.11;100.00
10310;BME280;5200;43.236;27.986;2023-03-22T08:47:57;100066.53;;;7.04;100.00
10310;BME280;5200;43.236;27.986;2023-03-22T08:50:26;100071.81;;;7.15;100.00
10310;BME280;5200;43.236;27.986;2023-03-22T08:52:53;100074.41;;;7.15;100.00
10310;BME280;5200;43.236;27.986;2023-03-22T08:55:20;100039.84;;;6.88;100.00
10310;BME280;5200;43.236;27.986;2023-03-22T08:57:47;100078.28;;;6.98;100.00
10310;BME280;5200;43.236;27.986;2023-03-22T09:00:16;100088.13;;;6.95;100.00
10310;BME280;5200;43.236;27.986;2023-03-22T09:02:43;100085.34;;;6.85;100.00
10310;BME280;5200;43.236;27.986;2023-03-22T09:05:10;100071.56;;;6.59;100.00
10310;BME280;5200;43.236;27.986;2023-03-22T09:07:39;100096.81;;;6.71;100.00
10310;BME280;5200;43.236;27.986;2023-03-22T09:10:08;100081.69;;;6.64;100.00
10310;BME280;5200;43.236;27.986;2023-03-22T09:12:35;100092.88;;;6.66;100.00
10310;BME280;5200;43.236;27.986;2023-03-22T09:15:02;100092.91;;;6.53;100.00
10310;BME280;5200;43.236;27.986;2023-03-22T09:17:30;100073.53;;;6.31;100.00
10310;BME280;5200;43.236;27.986;2023-03-22T09:19:57;100111.19;;;6.53;100.00
10310;BME280;5200;43.236;27.986;2023-03-22T09:22:24;100101.56;;;6.53;100.00
10310;BME280;5200;43.236;27.986;2023-03-22T09:24:52;100078.34;;;6.25;100.00
10310;BME280;5200;43.236;27.986;2023-03-22T09:27:19;100081.50;;;6.17;100.00
10310;BME280;5200;43.236;27.986;2023-03-22T09:29:46;100113.78;;;6.29;100.00
10310;BME280;5200;43.236;27.986;2023-03-22T09:32:14;100112.75;;;6.19;100.00
10310;BME280;5200;43.236;27.986;2023-03-22T09:34:41;100111.38;;;6.13;100.00
10310;BME280;5200;43.236;27.986;2023-03-22T09:37:08;100101.56;;;5.91;100.00
10310;BME280;5200;43.236;27.986;2023-03-22T09:39:37;100095.09;;;5.84;100.00
10310;BME280;5200;43.236;27.986;2023-03-22T09:42:09;100108.75;;;5.87;100.00
10310;BME280;5200;43.236;27.986;2023-03-22T09:44:42;100125.06;;;6.04;100.00
10310;BME280;5200;43.236;27.986;2023-03-22T09:47:14;100130.81;;;6.09;100.00
10310;BME280;5200;43.236;27.986;2023-03-22T09:49:44;100116.72;;;5.99;100.00
10310;BME280;5200;43.236;27.986;2023-03-22T09:52:14;100119.34;;;5.99;100.00
10310;BME280;5200;43.236;27.986;2023-03-22T09:54:43;100135.22;;;6.08;100.00
10310;BME280;5200;43.236;27.986;2023-03-22T09:57:18;100125.81;;;6.06;100.00
10310;BME280;5200;43.236;27.986;2023-03-22T09:59:53;100137.63;;;6.11;100.00
10310;BME280;5200;43.236;27.986;2023-03-22T10:02:36;100149.19;;;6.20;100.00
10310;BME280;5200;43.236;27.986;2023-03-22T10:05:15;100147.97;;;6.26;100.00
10310;BME280;5200;43.236;27.986;2023-03-22T10:08:08;100148.28;;;6.21;100.00
10310;BME280;5200;43.236;27.986;2023-03-22T10:10:38;100125.59;;;6.09;100.00
10310;BME280;5200;43.236;27.986;2023-03-22T10:13:15;100140.13;;;6.13;100.00
10310;BME280;5200;43.236;27.986;2023-03-22T10:15:45;100143.78;;;6.23;100.00
10310;BME280;5200;43.236;27.986;2023-03-22T10:18:17;100121.00;;;6.12;100.00
10310;BME280;5200;43.236;27.986;2023-03-22T10:20:48;100127.50;;;6.07;100.00
10310;BME280;5200;43.236;27.986;2023-03-22T10:23:23;100148.16;;;6.23;100.00
10310;BME280;5200;43.236;27.986;2023-03-22T10:25:51;100124.34;;;6.14;100.00
10310;BME280;5200;43.236;27.986;2023-03-22T10:28:23;100142.84;;;6.24;100.00
10310;BME280;5200;43.236;27.986;2023-03-22T10:30:53;100118.28;;;6.14;100.00
10310;BME280;5200;43.236;27.986;2023-03-22T10:33:27;100135.41;;;6.18;100.00
10310;BME280;5200;43.236;27.986;2023-03-22T10:35:56;100116.94;;;5.96;100.00
10310;BME280;5200;43.236;27.986;2023-03-22T10:38:25;100108.03;;;5.85;100.00
10310;BME280;5200;43.236;27.986;2023-03-22T10:40:54;100109.94;;;5.83;100.00
10310;BME280;5200;43.236;27.986;2023-03-22T10:43:28;100144.28;;;6.16;100.00
10310;BME280;5200;43.236;27.986;2023-03-22T10:45:57;100142.50;;;6.16;100.00
10310;BME280;5200;43.236;27.986;2023-03-22T10:48:26;100122.16;;;6.08;100.00
10310;BME280;5200;43.236;27.986;2023-03-22T10:50:55;100123.19;;;6.06;100.00
10310;BME280;5200;43.236;27.986;2023-03-22T10:53:28;100115.69;;;6.01;100.00
10310;BME280;5200;43.236;27.986;2023-03-22T10:55:58;100111.81;;;6.07;100.00
10310;BME280;5200;43.236;27.986;2023-03-22T10:58:30;100117.56;;;6.12;100.00
10310;BME280;5200;43.236;27.986;2023-03-22T11:00:58;100111.59;;;6.10;100.00
10310;BME280;5200;43.236;27.986;2023-03-22T11:03:30;100136.59;;;6.14;100.00
10310;BME280;5200;43.236;27.986;2023-03-22T11:05:59;100132.88;;;6.29;100.00
10310;BME280;5200;43.236;27.986;2023-03-22T11:08:27;100111.59;;;6.10;100.00
10310;BME280;5200;43.236;27.986;2023-03-22T11:10:53;100139.38;;;6.11;100.00
10310;BME280;5200;43.236;27.986;2023-03-22T11:13:25;100116.94;;;5.96;100.00
10310;BME280;5200;43.236;27.986;2023-03-22T11:15:59;100134.78;;;6.02;100.00
10310;BME280;5200;43.236;27.986;2023-03-22T11:18:29;100138.56;;;5.98;100.00
10310;BME280;5200;43.236;27.986;2023-03-22T11:20:59;100129.56;;;6.02;100.00
10310;BME280;5200;43.236;27.986;2023-03-22T11:23:30;100118.28;;;6.14;100.00
10310;BME280;5200;43.236;27.986;2023-03-22T11:26:06;100101.25;;;6.21;100.00
10310;BME280;5200;43.236;27.986;2023-03-22T11:28:35;100118.78;;;6.32;100.00
10310;BME280;5200;43.236;27.986;2023-03-22T11:31:07;100110.53;;;6.25;100.00
10310;BME280;5200;43.236;27.986;2023-03-22T11:33:35;100120.34;;;6.34;100.00
10310;BME280;5200;43.236;27.986;2023-03-22T11:36:04;100085.75;;;6.18;100.00
10310;BME280;5200;43.236;27.986;2023-03-22T11:38:40;100090.25;;;6.16;100.00
10310;BME280;5200;43.236;27.986;2023-03-22T11:41:15;100077.75;;;6.08;100.00
10310;BME280;5200;43.236;27.986;2023-03-22T11:43:48;100085.59;;;6.08;100.00
10310;BME280;5200;43.236;27.986;2023-03-22T11:46:17;100106.75;;;6.29;100.00
10310;BME280;5200;43.236;27.986;2023-03-22T11:48:46;100091.13;;;6.04;100.00
10310;BME280;5200;43.236;27.986;2023-03-22T11:51:16;100091.75;;;6.07;100.00
10310;BME280;5200;43.236;27.986;2023-03-22T11:53:46;100096.53;;;6.13;100.00
10310;BME280;5200;43.236;27.986;2023-03-22T11:56:17;100096.94;;;6.20;100.00
10310;BME280;5200;43.236;27.986;2023-03-22T11:58:56;100093.41;;;6.21;100.00
10310;BME280;5200;43.236;27.986;2023-03-22T12:01:35;100093.19;;;6.24;100.00
10310;BME280;5200;43.236;27.986;2023-03-22T12:04:06;100096.31;;;6.29;100.00
10310;BME280;5200;43.236;27.986;2023-03-22T12:06:38;100071.28;;;6.14;100.00
10310;BME280;5200;43.236;27.986;2023-03-22T12:09:11;100084.59;;;6.35;100.00
10310;BME280;5200;43.236;27.986;2023-03-22T12:11:47;100083.97;;;6.31;100.00
10310;BME280;5200;43.236;27.986;2023-03-22T12:14:18;100079.97;;;6.39;100.00
10310;BME280;5200;43.236;27.986;2023-03-22T12:16:49;100082.00;;;6.35;100.00
10310;BME280;5200;43.236;27.986;2023-03-22T12:19:25;100053.50;;;6.19;100.00
10310;BME280;5200;43.236;27.986;2023-03-22T12:21:57;100078.41;;;6.36;100.00
10310;BME280;5200;43.236;27.986;2023-03-22T12:24:27;100062.88;;;6.22;100.00
10310;BME280;5200;43.236;27.986;2023-03-22T12:26:58;100076.06;;;6.20;100.00
10310;BME280;5200;43.236;27.986;2023-03-22T12:29:27;100055.66;;;6.25;100.00
10310;BME280;5200;43.236;27.986;2023-03-22T12:32:02;100083.31;;;6.41;100.00
10310;BME280;5200;43.236;27.986;2023-03-22T12:34:35;100076.81;;;6.46;100.00
10310;BME280;5200;43.236;27.986;2023-03-22T12:37:06;100062.19;;;6.44;100.00
10310;BME280;5200;43.236;27.986;2023-03-22T12:39:38;100069.38;;;6.53;100.00
10310;BME280;5200;43.236;27.986;2023-03-22T12:42:12;100052.56;;;6.44;100.00
10310;BME280;5200;43.236;27.986;2023-03-22T12:44:43;100055.06;;;6.46;100.00
10310;BME280;5200;43.236;27.986;2023-03-22T12:47:17;100082.94;;;6.58;100.00
10310;BME280;5200;43.236;27.986;2023-03-22T12:49:51;100048.78;;;6.48;100.00
10310;BME280;5200;43.236;27.986;2023-03-22T12:52:23;100052.28;;;6.36;100.00
10310;BME280;5200;43.236;27.986;2023-03-22T12:54:53;100073.44;;;6.57;100.00
10310;BME280;5200;43.236;27.986;2023-03-22T12:57:21;100076.44;;;6.64;100.00
10310;BME280;5200;43.236;27.986;2023-03-22T12:59:49;100047.13;;;6.47;100.00
10310;BME280;5200;43.236;27.986;2023-03-22T13:02:23;100083.50;;;6.74;100.00
10310;BME280;5200;43.236;27.986;2023-03-22T13:04:53;100047.56;;;6.65;100.00
10310;BME280;5200;43.236;27.986;2023-03-22T13:07:36;100070.50;;;6.86;100.00
10310;BME280;5200;43.236;27.986;2023-03-22T13:10:39;100070.59;;;6.84;100.00
10310;BME280;5200;43.236;27.986;2023-03-22T13:13:32;100073.41;;;7.05;100.00
10310;BME280;5200;43.236;27.986;2023-03-22T13:16:02;100063.94;;;7.15;100.00